x

Nfb - Northwest Florida Bay, Fl (nfbf1) Weather Station

3:54pm - Sat 28th Feb 2015 All times are CST. -5 hours from GMT.

  • Wind
    13mph, 15mph gusts
  • Air Temp 79°f
  • Sea Pressure 1022mb
  • Nfb - Northwest Florida Bay, Fl
  • Nfb - Northwest Florida Bay, Fl

More Historic Weather Station data

Upgrade to MSW Pro to gain access to the past 30 days of data for over 8000 Wavebouys and Weather Stations around the globe.

Join Pro

Comparision Forecast

View Surf forecast
   
Sat 02/28 3:54pm 13 15 mph 1022mb 79f
3:48pm 11 14 mph 1022mb 79f
1:54pm 10 11 mph 1022.8mb 78f
1:48pm 9 10 mph 1022.9mb 78f
7:54am 10 11 mph 1023.2mb 72f
7:48am 10 11 mph 1023mb 71f
6:54am 11 13 mph 1022.3mb 72f
6:48am 11 13 mph 1022.2mb 72f
5:54am 13 15 mph 1021.3mb 72f
5:48am 14 16 mph 1021.1mb 72f
3:54am 15 16 mph 1020.4mb 71f
3:48am 14 16 mph 1020.5mb 71f
12:54am 20 22 mph 1021mb 68f
12:48am 20 23 mph 1021mb 68f
Fri 02/27 11:54pm 16 18 mph 1021.3mb 69f
11:48pm 18 21 mph 1021.3mb 69f
10:54pm 16 20 mph 1021.6mb 68f
10:48pm 15 17 mph 1021.7mb 68f
9:54pm 18 21 mph 1021.2mb 68f
9:48pm 20 22 mph 1021.2mb 68f
7:54pm 22 26 mph 1020.3mb 68f
7:48pm 22 25 mph 1020.3mb 68f
3:54pm 9 10 mph 1018.1mb 78f
3:48pm 8 10 mph 1018.1mb 78f
2:54pm 3 5 mph 1018.4mb 77f
2:48pm 2 3 mph 1018.5mb 78f
1:54pm 1 3 mph 1019mb 76f
1:48pm 3 5 mph 1019.1mb 75f
12:54pm  -  2 mph 1019.7mb 76f
12:48pm  -  1 mph 1019.8mb 77f
12:42pm 2
mph
1019.8mb 76f
12:36pm 2 3 mph 1019.8mb 77f
12:30pm 3
mph
1019.9mb 76f
12:24pm 3 5 mph 1020mb 76f
12:18pm 3 5 mph 1020mb 76f
12:12pm 5 6 mph 1020mb 75f
12:06pm 5 6 mph 1020mb 75f
12:00pm 5 7 mph 1020.1mb 75f
11:54am 6 7 mph 1020.1mb 74f
11:48am 7 8 mph 1020.1mb 74f
11:42am 8 9 mph 1020.1mb 74f
11:36am 8 9 mph 1020mb 74f
10:54am 10 13 mph 1020mb 72f
10:48am 11 13 mph 1019.9mb 71f
8:54am 13 15 mph 1019.7mb 67f
8:48am 13 15 mph 1019.7mb 67f
4:54am 13 15 mph 1016mb 69f
4:48am 14 16 mph 1015.9mb 69f
2:54am 15 17 mph 1015.9mb 70f
2:48am 14 16 mph 1016mb 71f
1:54am 9 10 mph 1016mb 70f
1:48am 9 11 mph 1016mb 70f
1:42am 7 10 mph 1016mb 71f
1:36am 6 9 mph 1016mb 71f
12:54am  -  1 mph 1016.1mb 74f
12:48am 2
mph
1016mb 74f
Thu 02/26 9:54pm  -  2 mph 1015.7mb 73f
9:48pm  -  mph 1015.5mb 73f
6:54pm  -  mph 1013.9mb 74f
6:48pm  -  1 mph 1013.8mb 73f
5:54pm  -  1 mph 1013.3mb 73f
5:48pm  -  2 mph 1013.2mb 73f
4:54pm 7 8 mph 1012.9mb 74f
4:48pm 6 7 mph 1012.8mb 73f
3:54pm 6 8 mph 1012.2mb 74f
3:48pm 7 8 mph 1012.3mb 74f
12:54pm 13 15 mph 1012.5mb 74f
12:48pm 13 15 mph 1012.3mb 73f
9:54am 13 15 mph 1013mb 73f
9:48am 14 16 mph 1012.9mb 73f
5:54am 7 8 mph 1011.3mb 71f
5:48am 7
mph
1011.3mb 71f
4:54am 8 9 mph 1011.1mb 72f
4:48am 8 9 mph 1011.1mb 72f
2:54am 9 11 mph 1010.3mb 72f
2:48am 8 9 mph 1010.4mb 72f
2:42am 9 10 mph 1010.5mb 72f
2:36am 10 13 mph 1010.5mb 72f
2:30am 13 15 mph 1010.6mb 73f
2:24am 14 15 mph 1010.6mb 73f
2:18am 13 16 mph 1010.6mb 73f
2:12am 13 16 mph 1010.6mb 73f
2:06am 13 14 mph 1010.7mb 73f
2:00am 13 14 mph 1010.8mb 73f
12:54am 10 13 mph 1011.4mb 72f
12:48am 9 11 mph 1011.5mb 72f
Wed 02/25 11:54pm 11 13 mph 1011.6mb 72f
11:48pm 10 13 mph 1011.8mb 72f